sensor_id;sensor_type;location;lat;lon;timestamp;temperature;humidity
17415;DHT22;8825;48.086;16.426;2024-03-29T00:00:44;11.00;52.50
17415;DHT22;8825;48.086;16.426;2024-03-29T00:03:12;11.00;52.40
17415;DHT22;8825;48.086;16.426;2024-03-29T00:05:39;11.00;52.40
17415;DHT22;8825;48.086;16.426;2024-03-29T00:08:08;10.90;52.60
17415;DHT22;8825;48.086;16.426;2024-03-29T00:10:36;10.90;52.80
17415;DHT22;8825;48.086;16.426;2024-03-29T00:13:05;10.90;52.90
17415;DHT22;8825;48.086;16.426;2024-03-29T00:15:32;10.80;53.00
17415;DHT22;8825;48.086;16.426;2024-03-29T00:18:00;10.80;53.10
17415;DHT22;8825;48.086;16.426;2024-03-29T00:20:28;10.80;53.10
17415;DHT22;8825;48.086;16.426;2024-03-29T00:22:56;10.80;53.00
17415;DHT22;8825;48.086;16.426;2024-03-29T00:25:23;10.70;53.00
17415;DHT22;8825;48.086;16.426;2024-03-29T00:27:51;10.70;52.90
17415;DHT22;8825;48.086;16.426;2024-03-29T00:30:18;10.60;52.90
17415;DHT22;8825;48.086;16.426;2024-03-29T00:32:46;10.60;53.10
17415;DHT22;8825;48.086;16.426;2024-03-29T00:35:13;10.60;53.20
17415;DHT22;8825;48.086;16.426;2024-03-29T00:37:41;10.50;53.00
17415;DHT22;8825;48.086;16.426;2024-03-29T00:40:10;10.50;53.10
17415;DHT22;8825;48.086;16.426;2024-03-29T00:42:38;10.50;53.20
17415;DHT22;8825;48.086;16.426;2024-03-29T00:45:06;10.50;53.20
17415;DHT22;8825;48.086;16.426;2024-03-29T00:47:34;10.40;53.30
17415;DHT22;8825;48.086;16.426;2024-03-29T00:50:01;10.40;53.40
17415;DHT22;8825;48.086;16.426;2024-03-29T00:52:29;10.30;53.50
17415;DHT22;8825;48.086;16.426;2024-03-29T00:54:57;10.30;53.50
17415;DHT22;8825;48.086;16.426;2024-03-29T00:57:24;10.20;53.70
17415;DHT22;8825;48.086;16.426;2024-03-29T00:59:52;10.20;53.80
17415;DHT22;8825;48.086;16.426;2024-03-29T01:02:19;10.10;53.60
17415;DHT22;8825;48.086;16.426;2024-03-29T01:04:47;10.10;53.70
17415;DHT22;8825;48.086;16.426;2024-03-29T01:07:15;10.00;53.80
17415;DHT22;8825;48.086;16.426;2024-03-29T01:09:44;10.00;54.00
17415;DHT22;8825;48.086;16.426;2024-03-29T01:12:11;10.00;54.00
17415;DHT22;8825;48.086;16.426;2024-03-29T01:14:39;10.00;54.00
17415;DHT22;8825;48.086;16.426;2024-03-29T01:17:06;10.10;54.00
17415;DHT22;8825;48.086;16.426;2024-03-29T01:19:34;10.10;54.00
17415;DHT22;8825;48.086;16.426;2024-03-29T01:22:02;10.10;54.00
17415;DHT22;8825;48.086;16.426;2024-03-29T01:24:29;10.10;54.60
17415;DHT22;8825;48.086;16.426;2024-03-29T01:26:57;10.10;54.00
17415;DHT22;8825;48.086;16.426;2024-03-29T01:29:25;10.10;54.00
17415;DHT22;8825;48.086;16.426;2024-03-29T01:31:53;10.20;54.10
17415;DHT22;8825;48.086;16.426;2024-03-29T01:34:21;10.20;53.90
17415;DHT22;8825;48.086;16.426;2024-03-29T01:36:49;10.10;53.80
17415;DHT22;8825;48.086;16.426;2024-03-29T01:39:16;10.10;53.70
17415;DHT22;8825;48.086;16.426;2024-03-29T01:41:46;10.10;53.70
17415;DHT22;8825;48.086;16.426;2024-03-29T01:44:13;10.00;53.70
17415;DHT22;8825;48.086;16.426;2024-03-29T01:46:41;10.00;53.70
17415;DHT22;8825;48.086;16.426;2024-03-29T01:49:10;10.00;53.80
17415;DHT22;8825;48.086;16.426;2024-03-29T01:51:39;9.90;53.70
17415;DHT22;8825;48.086;16.426;2024-03-29T01:54:08;9.70;53.90
17415;DHT22;8825;48.086;16.426;2024-03-29T01:56:38;9.50;54.40
17415;DHT22;8825;48.086;16.426;2024-03-29T01:59:12;9.30;54.70
17415;DHT22;8825;48.086;16.426;2024-03-29T02:01:41;9.30;54.80
17415;DHT22;8825;48.086;16.426;2024-03-29T02:04:09;9.30;55.00
17415;DHT22;8825;48.086;16.426;2024-03-29T02:06:39;9.30;55.00
17415;DHT22;8825;48.086;16.426;2024-03-29T02:09:07;9.30;55.10
17415;DHT22;8825;48.086;16.426;2024-03-29T02:11:34;9.30;55.30
17415;DHT22;8825;48.086;16.426;2024-03-29T02:14:02;9.30;55.40
17415;DHT22;8825;48.086;16.426;2024-03-29T02:16:32;9.30;55.40
17415;DHT22;8825;48.086;16.426;2024-03-29T02:19:00;9.30;55.40
17415;DHT22;8825;48.086;16.426;2024-03-29T02:21:27;9.30;55.50
17415;DHT22;8825;48.086;16.426;2024-03-29T02:24:08;9.20;55.70
17415;DHT22;8825;48.086;16.426;2024-03-29T02:26:36;9.20;56.00
17415;DHT22;8825;48.086;16.426;2024-03-29T02:29:05;9.10;56.10
17415;DHT22;8825;48.086;16.426;2024-03-29T02:31:33;9.00;56.20
17415;DHT22;8825;48.086;16.426;2024-03-29T02:34:00;8.90;56.60
17415;DHT22;8825;48.086;16.426;2024-03-29T02:36:28;8.90;56.40
17415;DHT22;8825;48.086;16.426;2024-03-29T02:38:56;8.80;56.50
17415;DHT22;8825;48.086;16.426;2024-03-29T02:41:24;8.70;56.50
17415;DHT22;8825;48.086;16.426;2024-03-29T02:43:54;8.60;56.70
17415;DHT22;8825;48.086;16.426;2024-03-29T02:46:22;8.40;57.20
17415;DHT22;8825;48.086;16.426;2024-03-29T02:48:49;8.20;57.50
17415;DHT22;8825;48.086;16.426;2024-03-29T02:51:17;8.00;57.80
17415;DHT22;8825;48.086;16.426;2024-03-29T02:53:44;7.80;58.10
17415;DHT22;8825;48.086;16.426;2024-03-29T02:56:12;7.70;58.50
17415;DHT22;8825;48.086;16.426;2024-03-29T02:58:41;7.50;58.90
17415;DHT22;8825;48.086;16.426;2024-03-29T03:01:09;7.40;59.40
17415;DHT22;8825;48.086;16.426;2024-03-29T03:03:37;7.30;60.10
17415;DHT22;8825;48.086;16.426;2024-03-29T03:06:05;7.20;59.60
17415;DHT22;8825;48.086;16.426;2024-03-29T03:08:32;7.20;59.90
17415;DHT22;8825;48.086;16.426;2024-03-29T03:11:18;7.10;60.00
17415;DHT22;8825;48.086;16.426;2024-03-29T03:13:45;7.00;60.20
17415;DHT22;8825;48.086;16.426;2024-03-29T03:16:13;7.00;60.30
17415;DHT22;8825;48.086;16.426;2024-03-29T03:18:40;7.00;60.40
17415;DHT22;8825;48.086;16.426;2024-03-29T03:21:08;7.10;60.40
17415;DHT22;8825;48.086;16.426;2024-03-29T03:23:35;7.10;60.30
17415;DHT22;8825;48.086;16.426;2024-03-29T03:26:03;7.10;60.30
17415;DHT22;8825;48.086;16.426;2024-03-29T03:28:31;7.10;60.30
17415;DHT22;8825;48.086;16.426;2024-03-29T03:30:58;7.10;60.40
17415;DHT22;8825;48.086;16.426;2024-03-29T03:33:26;7.20;60.50
17415;DHT22;8825;48.086;16.426;2024-03-29T03:35:53;7.20;60.40
17415;DHT22;8825;48.086;16.426;2024-03-29T03:38:21;7.20;60.50
17415;DHT22;8825;48.086;16.426;2024-03-29T03:40:48;7.30;60.50
17415;DHT22;8825;48.086;16.426;2024-03-29T03:43:16;7.20;61.30
17415;DHT22;8825;48.086;16.426;2024-03-29T03:45:43;7.20;60.50
17415;DHT22;8825;48.086;16.426;2024-03-29T03:48:11;7.20;60.60
17415;DHT22;8825;48.086;16.426;2024-03-29T03:50:39;7.30;60.60
17415;DHT22;8825;48.086;16.426;2024-03-29T03:53:08;7.20;61.00
17415;DHT22;8825;48.086;16.426;2024-03-29T03:55:38;7.10;61.40
17415;DHT22;8825;48.086;16.426;2024-03-29T03:58:06;7.00;62.00
17415;DHT22;8825;48.086;16.426;2024-03-29T04:00:33;6.90;62.60
17415;DHT22;8825;48.086;16.426;2024-03-29T04:03:01;6.90;62.70
17415;DHT22;8825;48.086;16.426;2024-03-29T04:05:30;6.90;62.70
17415;DHT22;8825;48.086;16.426;2024-03-29T04:07:58;6.90;62.80
17415;DHT22;8825;48.086;16.426;2024-03-29T04:10:26;7.00;62.80
17415;DHT22;8825;48.086;16.426;2024-03-29T04:12:54;7.00;62.70
17415;DHT22;8825;48.086;16.426;2024-03-29T04:15:21;7.00;62.60
17415;DHT22;8825;48.086;16.426;2024-03-29T04:17:49;7.00;62.60
17415;DHT22;8825;48.086;16.426;2024-03-29T04:20:16;7.00;63.90
17415;DHT22;8825;48.086;16.426;2024-03-29T04:22:44;7.00;63.60
17415;DHT22;8825;48.086;16.426;2024-03-29T04:25:12;7.00;63.50
17415;DHT22;8825;48.086;16.426;2024-03-29T04:27:41;7.00;63.70
17415;DHT22;8825;48.086;16.426;2024-03-29T04:30:09;7.00;64.00
17415;DHT22;8825;48.086;16.426;2024-03-29T04:32:36;7.00;63.90
17415;DHT22;8825;48.086;16.426;2024-03-29T04:35:04;7.00;63.80
17415;DHT22;8825;48.086;16.426;2024-03-29T04:37:32;7.00;63.70
17415;DHT22;8825;48.086;16.426;2024-03-29T04:40:00;7.10;63.70
17415;DHT22;8825;48.086;16.426;2024-03-29T04:42:27;7.10;63.70
17415;DHT22;8825;48.086;16.426;2024-03-29T04:44:55;7.20;63.70
17415;DHT22;8825;48.086;16.426;2024-03-29T04:47:22;7.20;63.80
17415;DHT22;8825;48.086;16.426;2024-03-29T04:49:50;7.20;63.70
17415;DHT22;8825;48.086;16.426;2024-03-29T04:52:17;7.30;63.60
17415;DHT22;8825;48.086;16.426;2024-03-29T04:54:45;7.30;63.90
17415;DHT22;8825;48.086;16.426;2024-03-29T04:57:12;7.30;63.40
17415;DHT22;8825;48.086;16.426;2024-03-29T04:59:40;7.30;63.50
17415;DHT22;8825;48.086;16.426;2024-03-29T05:02:07;7.30;63.40
17415;DHT22;8825;48.086;16.426;2024-03-29T05:04:35;7.40;63.40
17415;DHT22;8825;48.086;16.426;2024-03-29T05:07:02;7.40;63.40
17415;DHT22;8825;48.086;16.426;2024-03-29T05:09:31;7.40;63.40
17415;DHT22;8825;48.086;16.426;2024-03-29T05:11:58;7.40;63.40
17415;DHT22;8825;48.086;16.426;2024-03-29T05:14:26;7.50;63.40
17415;DHT22;8825;48.086;16.426;2024-03-29T05:16:53;7.50;63.30
17415;DHT22;8825;48.086;16.426;2024-03-29T05:19:21;7.60;63.30
17415;DHT22;8825;48.086;16.426;2024-03-29T05:21:48;7.60;63.10
17415;DHT22;8825;48.086;16.426;2024-03-29T05:24:16;7.70;63.00
17415;DHT22;8825;48.086;16.426;2024-03-29T05:26:44;7.70;62.80
17415;DHT22;8825;48.086;16.426;2024-03-29T05:29:11;7.80;62.60
17415;DHT22;8825;48.086;16.426;2024-03-29T05:31:39;7.80;62.00
17415;DHT22;8825;48.086;16.426;2024-03-29T05:34:08;7.90;61.20
17415;DHT22;8825;48.086;16.426;2024-03-29T05:36:35;7.90;60.10
17415;DHT22;8825;48.086;16.426;2024-03-29T05:39:03;7.90;60.20
17415;DHT22;8825;48.086;16.426;2024-03-29T05:41:30;8.00;60.30
17415;DHT22;8825;48.086;16.426;2024-03-29T05:43:58;8.00;60.10
17415;DHT22;8825;48.086;16.426;2024-03-29T05:46:26;8.10;60.10
17415;DHT22;8825;48.086;16.426;2024-03-29T05:48:53;8.10;59.70
17415;DHT22;8825;48.086;16.426;2024-03-29T05:51:21;8.10;59.50
17415;DHT22;8825;48.086;16.426;2024-03-29T05:53:48;8.20;59.50
17415;DHT22;8825;48.086;16.426;2024-03-29T05:56:16;8.30;59.40
17415;DHT22;8825;48.086;16.426;2024-03-29T05:58:44;8.40;59.10
17415;DHT22;8825;48.086;16.426;2024-03-29T06:01:11;8.40;59.10
17415;DHT22;8825;48.086;16.426;2024-03-29T06:03:39;8.50;58.90
17415;DHT22;8825;48.086;16.426;2024-03-29T06:06:07;8.50;58.70
17415;DHT22;8825;48.086;16.426;2024-03-29T06:08:36;8.50;58.40
17415;DHT22;8825;48.086;16.426;2024-03-29T06:11:04;8.40;59.50
17415;DHT22;8825;48.086;16.426;2024-03-29T06:13:31;8.40;60.30
17415;DHT22;8825;48.086;16.426;2024-03-29T06:16:17;8.50;60.50
17415;DHT22;8825;48.086;16.426;2024-03-29T06:19:02;8.50;60.80
17415;DHT22;8825;48.086;16.426;2024-03-29T06:21:30;8.50;61.20
17415;DHT22;8825;48.086;16.426;2024-03-29T06:24:00;8.60;62.10
17415;DHT22;8825;48.086;16.426;2024-03-29T06:26:27;8.60;61.60
17415;DHT22;8825;48.086;16.426;2024-03-29T06:28:55;8.80;62.40
17415;DHT22;8825;48.086;16.426;2024-03-29T06:31:22;8.90;61.70
17415;DHT22;8825;48.086;16.426;2024-03-29T06:33:50;9.00;61.10
17415;DHT22;8825;48.086;16.426;2024-03-29T06:36:17;9.10;61.10
17415;DHT22;8825;48.086;16.426;2024-03-29T06:38:45;9.30;60.30
17415;DHT22;8825;48.086;16.426;2024-03-29T06:41:12;9.30;59.90
17415;DHT22;8825;48.086;16.426;2024-03-29T06:43:43;9.50;59.90
17415;DHT22;8825;48.086;16.426;2024-03-29T06:46:12;9.60;59.80
17415;DHT22;8825;48.086;16.426;2024-03-29T06:48:39;9.80;60.00
17415;DHT22;8825;48.086;16.426;2024-03-29T06:51:07;10.00;59.90
17415;DHT22;8825;48.086;16.426;2024-03-29T06:53:34;10.20;59.00
17415;DHT22;8825;48.086;16.426;2024-03-29T06:56:02;10.40;58.10
17415;DHT22;8825;48.086;16.426;2024-03-29T06:58:30;10.50;58.00
17415;DHT22;8825;48.086;16.426;2024-03-29T07:00:57;10.70;57.50
17415;DHT22;8825;48.086;16.426;2024-03-29T07:03:25;10.90;57.40
17415;DHT22;8825;48.086;16.426;2024-03-29T07:05:52;11.00;56.40
17415;DHT22;8825;48.086;16.426;2024-03-29T07:08:20;11.10;56.00
17415;DHT22;8825;48.086;16.426;2024-03-29T07:10:47;11.20;56.40
17415;DHT22;8825;48.086;16.426;2024-03-29T07:13:16;11.30;56.70
17415;DHT22;8825;48.086;16.426;2024-03-29T07:15:50;11.50;56.40
17415;DHT22;8825;48.086;16.426;2024-03-29T07:18:14;11.60;56.50
17415;DHT22;8825;48.086;16.426;2024-03-29T07:20:42;11.80;56.30
17415;DHT22;8825;48.086;16.426;2024-03-29T07:23:10;11.90;55.50
17415;DHT22;8825;48.086;16.426;2024-03-29T07:25:38;12.20;55.70
17415;DHT22;8825;48.086;16.426;2024-03-29T07:28:05;12.40;55.40
17415;DHT22;8825;48.086;16.426;2024-03-29T07:30:34;12.70;53.90
17415;DHT22;8825;48.086;16.426;2024-03-29T07:33:04;12.90;53.30
17415;DHT22;8825;48.086;16.426;2024-03-29T07:35:32;13.10;52.30
17415;DHT22;8825;48.086;16.426;2024-03-29T07:37:59;13.20;51.90
17415;DHT22;8825;48.086;16.426;2024-03-29T07:40:27;13.40;52.50
17415;DHT22;8825;48.086;16.426;2024-03-29T07:42:54;13.60;52.40
17415;DHT22;8825;48.086;16.426;2024-03-29T07:45:22;13.70;52.20
17415;DHT22;8825;48.086;16.426;2024-03-29T07:47:49;13.80;52.30
17415;DHT22;8825;48.086;16.426;2024-03-29T07:50:22;13.90;52.50
17415;DHT22;8825;48.086;16.426;2024-03-29T07:52:51;14.00;53.00
17415;DHT22;8825;48.086;16.426;2024-03-29T07:55:18;14.10;52.70
17415;DHT22;8825;48.086;16.426;2024-03-29T07:57:46;14.10;53.00
17415;DHT22;8825;48.086;16.426;2024-03-29T08:00:14;14.30;52.90
17415;DHT22;8825;48.086;16.426;2024-03-29T08:02:42;14.30;52.70
17415;DHT22;8825;48.086;16.426;2024-03-29T08:05:10;14.30;53.20
17415;DHT22;8825;48.086;16.426;2024-03-29T08:07:38;14.40;53.50
17415;DHT22;8825;48.086;16.426;2024-03-29T08:10:06;14.50;53.70
17415;DHT22;8825;48.086;16.426;2024-03-29T08:12:34;14.50;54.40
17415;DHT22;8825;48.086;16.426;2024-03-29T08:15:04;14.50;54.30
17415;DHT22;8825;48.086;16.426;2024-03-29T08:17:31;14.50;54.60
17415;DHT22;8825;48.086;16.426;2024-03-29T08:19:59;14.50;54.90
17415;DHT22;8825;48.086;16.426;2024-03-29T08:22:26;14.50;55.10
17415;DHT22;8825;48.086;16.426;2024-03-29T08:24:55;14.50;55.50
17415;DHT22;8825;48.086;16.426;2024-03-29T08:27:23;14.60;55.60
17415;DHT22;8825;48.086;16.426;2024-03-29T08:29:50;14.60;55.70
17415;DHT22;8825;48.086;16.426;2024-03-29T08:32:18;14.70;56.00
17415;DHT22;8825;48.086;16.426;2024-03-29T08:34:45;14.70;56.10
17415;DHT22;8825;48.086;16.426;2024-03-29T08:37:13;14.80;56.00
17415;DHT22;8825;48.086;16.426;2024-03-29T08:39:41;14.80;56.10
17415;DHT22;8825;48.086;16.426;2024-03-29T08:42:09;14.90;56.10
17415;DHT22;8825;48.086;16.426;2024-03-29T08:44:38;15.00;56.10
17415;DHT22;8825;48.086;16.426;2024-03-29T08:47:06;15.00;55.80
17415;DHT22;8825;48.086;16.426;2024-03-29T08:49:34;15.10;55.80
17415;DHT22;8825;48.086;16.426;2024-03-29T08:52:01;15.20;55.60
17415;DHT22;8825;48.086;16.426;2024-03-29T08:54:30;15.20;55.20
17415;DHT22;8825;48.086;16.426;2024-03-29T08:56:58;15.30;55.70
17415;DHT22;8825;48.086;16.426;2024-03-29T08:59:28;15.50;56.10
17415;DHT22;8825;48.086;16.426;2024-03-29T09:02:03;15.70;55.70
17415;DHT22;8825;48.086;16.426;2024-03-29T09:04:27;15.80;55.50
17415;DHT22;8825;48.086;16.426;2024-03-29T09:06:55;16.00;55.50
17415;DHT22;8825;48.086;16.426;2024-03-29T09:09:22;16.20;54.80
17415;DHT22;8825;48.086;16.426;2024-03-29T09:11:50;16.50;54.70
17415;DHT22;8825;48.086;16.426;2024-03-29T09:14:17;16.80;54.30
17415;DHT22;8825;48.086;16.426;2024-03-29T09:16:45;17.10;53.10
17415;DHT22;8825;48.086;16.426;2024-03-29T09:19:14;17.50;52.30
17415;DHT22;8825;48.086;16.426;2024-03-29T09:21:41;17.80;50.80
17415;DHT22;8825;48.086;16.426;2024-03-29T09:24:09;18.00;48.60
17415;DHT22;8825;48.086;16.426;2024-03-29T09:26:37;18.10;48.80
17415;DHT22;8825;48.086;16.426;2024-03-29T09:29:04;18.30;48.30
17415;DHT22;8825;48.086;16.426;2024-03-29T09:31:32;18.50;47.00
17415;DHT22;8825;48.086;16.426;2024-03-29T09:33:59;18.70;47.40
17415;DHT22;8825;48.086;16.426;2024-03-29T09:36:27;19.00;47.30
17415;DHT22;8825;48.086;16.426;2024-03-29T09:38:54;19.30;45.20
17415;DHT22;8825;48.086;16.426;2024-03-29T09:41:23;19.50;45.40
17415;DHT22;8825;48.086;16.426;2024-03-29T09:43:54;19.70;44.20
17415;DHT22;8825;48.086;16.426;2024-03-29T09:46:24;19.80;44.40
17415;DHT22;8825;48.086;16.426;2024-03-29T09:48:53;20.00;43.50
17415;DHT22;8825;48.086;16.426;2024-03-29T09:51:21;20.10;43.40
17415;DHT22;8825;48.086;16.426;2024-03-29T09:53:50;20.30;42.40
17415;DHT22;8825;48.086;16.426;2024-03-29T09:56:18;20.20;42.20
17415;DHT22;8825;48.086;16.426;2024-03-29T09:58:46;20.00;42.70
17415;DHT22;8825;48.086;16.426;2024-03-29T10:01:13;19.90;43.00
17415;DHT22;8825;48.086;16.426;2024-03-29T10:03:43;19.80;43.60
17415;DHT22;8825;48.086;16.426;2024-03-29T10:06:12;19.70;42.80
17415;DHT22;8825;48.086;16.426;2024-03-29T10:08:40;19.50;43.30
17415;DHT22;8825;48.086;16.426;2024-03-29T10:11:08;19.30;44.10
17415;DHT22;8825;48.086;16.426;2024-03-29T10:13:37;19.30;44.40
17415;DHT22;8825;48.086;16.426;2024-03-29T10:16:04;19.50;44.80
17415;DHT22;8825;48.086;16.426;2024-03-29T10:18:32;19.80;44.50
17415;DHT22;8825;48.086;16.426;2024-03-29T10:23:30;20.20;42.60
17415;DHT22;8825;48.086;16.426;2024-03-29T10:25:58;20.40;42.30
17415;DHT22;8825;48.086;16.426;2024-03-29T10:28:32;20.70;42.30
17415;DHT22;8825;48.086;16.426;2024-03-29T10:31:04;20.70;41.00
17415;DHT22;8825;48.086;16.426;2024-03-29T10:33:33;20.60;41.60
17415;DHT22;8825;48.086;16.426;2024-03-29T10:36:02;20.90;42.20
17415;DHT22;8825;48.086;16.426;2024-03-29T10:38:31;21.10;41.80
17415;DHT22;8825;48.086;16.426;2024-03-29T10:40:59;21.30;41.50
17415;DHT22;8825;48.086;16.426;2024-03-29T10:43:28;21.50;40.90
17415;DHT22;8825;48.086;16.426;2024-03-29T10:45:56;21.60;40.60
17415;DHT22;8825;48.086;16.426;2024-03-29T10:48:27;21.40;40.40
17415;DHT22;8825;48.086;16.426;2024-03-29T10:50:55;21.20;40.70
17415;DHT22;8825;48.086;16.426;2024-03-29T10:53:25;21.10;41.20
17415;DHT22;8825;48.086;16.426;2024-03-29T10:56:00;20.90;41.80
17415;DHT22;8825;48.086;16.426;2024-03-29T10:58:28;20.80;42.50
17415;DHT22;8825;48.086;16.426;2024-03-29T11:00:59;20.70;42.00
17415;DHT22;8825;48.086;16.426;2024-03-29T11:03:44;20.50;42.30
17415;DHT22;8825;48.086;16.426;2024-03-29T11:06:08;20.50;42.80
17415;DHT22;8825;48.086;16.426;2024-03-29T11:08:37;20.30;43.20
17415;DHT22;8825;48.086;16.426;2024-03-29T11:11:09;20.20;43.50
17415;DHT22;8825;48.086;16.426;2024-03-29T11:14:00;20.10;43.90
17415;DHT22;8825;48.086;16.426;2024-03-29T11:16:27;20.20;44.30
17415;DHT22;8825;48.086;16.426;2024-03-29T11:18:56;20.20;44.20
17415;DHT22;8825;48.086;16.426;2024-03-29T11:21:24;20.30;44.20
17415;DHT22;8825;48.086;16.426;2024-03-29T11:23:54;20.40;43.70
17415;DHT22;8825;48.086;16.426;2024-03-29T11:26:24;20.40;43.80
17415;DHT22;8825;48.086;16.426;2024-03-29T11:28:53;20.50;44.20
17415;DHT22;8825;48.086;16.426;2024-03-29T11:31:23;20.60;43.90
17415;DHT22;8825;48.086;16.426;2024-03-29T11:33:52;20.70;43.50
17415;DHT22;8825;48.086;16.426;2024-03-29T11:36:22;20.70;43.90
17415;DHT22;8825;48.086;16.426;2024-03-29T11:38:57;20.80;43.70
17415;DHT22;8825;48.086;16.426;2024-03-29T11:41:27;20.80;43.70
17415;DHT22;8825;48.086;16.426;2024-03-29T11:43:56;21.00;43.70
17415;DHT22;8825;48.086;16.426;2024-03-29T11:46:25;21.30;43.90
17415;DHT22;8825;48.086;16.426;2024-03-29T11:48:53;21.50;43.50
17415;DHT22;8825;48.086;16.426;2024-03-29T11:51:22;21.70;43.00
17415;DHT22;8825;48.086;16.426;2024-03-29T11:53:51;22.00;43.00
17415;DHT22;8825;48.086;16.426;2024-03-29T11:56:19;22.00;40.90
17415;DHT22;8825;48.086;16.426;2024-03-29T11:58:48;22.00;40.00
17415;DHT22;8825;48.086;16.426;2024-03-29T12:01:16;22.10;40.40
17415;DHT22;8825;48.086;16.426;2024-03-29T12:03:44;22.20;41.10
17415;DHT22;8825;48.086;16.426;2024-03-29T12:06:14;22.30;39.50
17415;DHT22;8825;48.086;16.426;2024-03-29T12:08:43;22.20;39.10
17415;DHT22;8825;48.086;16.426;2024-03-29T12:11:11;22.30;39.40
17415;DHT22;8825;48.086;16.426;2024-03-29T12:13:39;22.50;39.10
17415;DHT22;8825;48.086;16.426;2024-03-29T12:16:07;22.50;38.30
17415;DHT22;8825;48.086;16.426;2024-03-29T12:18:35;22.40;39.40
17415;DHT22;8825;48.086;16.426;2024-03-29T12:21:03;22.40;39.20
17415;DHT22;8825;48.086;16.426;2024-03-29T12:23:31;22.40;38.40
17415;DHT22;8825;48.086;16.426;2024-03-29T12:25:59;22.20;39.40
17415;DHT22;8825;48.086;16.426;2024-03-29T12:28:27;22.20;39.50
17415;DHT22;8825;48.086;16.426;2024-03-29T12:30:56;22.20;39.60
17415;DHT22;8825;48.086;16.426;2024-03-29T12:33:24;22.20;39.40
17415;DHT22;8825;48.086;16.426;2024-03-29T12:35:52;22.10;40.10
17415;DHT22;8825;48.086;16.426;2024-03-29T12:38:22;22.00;40.20
17415;DHT22;8825;48.086;16.426;2024-03-29T12:40:50;22.00;40.20
17415;DHT22;8825;48.086;16.426;2024-03-29T12:43:22;21.90;40.20
17415;DHT22;8825;48.086;16.426;2024-03-29T12:45:51;21.70;40.10
17415;DHT22;8825;48.086;16.426;2024-03-29T12:48:22;21.60;40.60
17415;DHT22;8825;48.086;16.426;2024-03-29T12:50:52;21.70;40.70
17415;DHT22;8825;48.086;16.426;2024-03-29T12:53:20;21.70;40.60
17415;DHT22;8825;48.086;16.426;2024-03-29T12:55:48;21.70;40.60
17415;DHT22;8825;48.086;16.426;2024-03-29T12:58:17;21.70;40.60
17415;DHT22;8825;48.086;16.426;2024-03-29T13:00:47;21.70;41.00
17415;DHT22;8825;48.086;16.426;2024-03-29T13:03:14;21.70;40.90
17415;DHT22;8825;48.086;16.426;2024-03-29T13:05:42;21.70;41.00
17415;DHT22;8825;48.086;16.426;2024-03-29T13:08:12;21.80;40.80
17415;DHT22;8825;48.086;16.426;2024-03-29T13:10:42;21.80;41.00
17415;DHT22;8825;48.086;16.426;2024-03-29T13:13:10;21.90;41.30
17415;DHT22;8825;48.086;16.426;2024-03-29T13:15:39;22.00;40.40
17415;DHT22;8825;48.086;16.426;2024-03-29T13:18:08;22.30;40.90
17415;DHT22;8825;48.086;16.426;2024-03-29T13:20:38;22.50;40.60
17415;DHT22;8825;48.086;16.426;2024-03-29T13:23:07;22.70;40.10
17415;DHT22;8825;48.086;16.426;2024-03-29T13:25:35;22.80;39.70
17415;DHT22;8825;48.086;16.426;2024-03-29T13:28:03;22.90;39.40
17415;DHT22;8825;48.086;16.426;2024-03-29T13:30:30;23.20;39.50
17415;DHT22;8825;48.086;16.426;2024-03-29T13:32:58;23.40;39.00
17415;DHT22;8825;48.086;16.426;2024-03-29T13:35:26;23.50;38.20
17415;DHT22;8825;48.086;16.426;2024-03-29T13:37:53;23.60;38.10
17415;DHT22;8825;48.086;16.426;2024-03-29T13:40:23;23.80;35.80
17415;DHT22;8825;48.086;16.426;2024-03-29T13:42:53;23.80;35.20
17415;DHT22;8825;48.086;16.426;2024-03-29T13:45:21;23.70;34.60
17415;DHT22;8825;48.086;16.426;2024-03-29T13:47:48;23.80;34.70
17415;DHT22;8825;48.086;16.426;2024-03-29T13:50:16;23.80;34.10
17415;DHT22;8825;48.086;16.426;2024-03-29T13:52:43;23.90;34.30
17415;DHT22;8825;48.086;16.426;2024-03-29T13:55:11;23.90;34.10
17415;DHT22;8825;48.086;16.426;2024-03-29T13:57:39;23.90;33.70
17415;DHT22;8825;48.086;16.426;2024-03-29T14:00:08;23.90;35.10
17415;DHT22;8825;48.086;16.426;2024-03-29T14:02:37;23.80;34.00
17415;DHT22;8825;48.086;16.426;2024-03-29T14:05:05;23.80;35.40
17415;DHT22;8825;48.086;16.426;2024-03-29T14:07:33;23.70;35.60
17415;DHT22;8825;48.086;16.426;2024-03-29T14:10:00;23.70;36.30
17415;DHT22;8825;48.086;16.426;2024-03-29T14:12:30;23.60;36.10
17415;DHT22;8825;48.086;16.426;2024-03-29T14:14:57;23.50;36.60
17415;DHT22;8825;48.086;16.426;2024-03-29T14:17:26;23.30;37.20
17415;DHT22;8825;48.086;16.426;2024-03-29T14:19:55;23.20;37.40
17415;DHT22;8825;48.086;16.426;2024-03-29T14:22:22;23.10;37.20
17415;DHT22;8825;48.086;16.426;2024-03-29T14:24:51;23.00;37.10
17415;DHT22;8825;48.086;16.426;2024-03-29T14:27:18;23.00;36.90
17415;DHT22;8825;48.086;16.426;2024-03-29T14:29:46;22.90;36.60
17415;DHT22;8825;48.086;16.426;2024-03-29T14:32:14;22.90;37.10
17415;DHT22;8825;48.086;16.426;2024-03-29T14:34:41;22.90;37.10
17415;DHT22;8825;48.086;16.426;2024-03-29T14:37:11;23.00;37.60
17415;DHT22;8825;48.086;16.426;2024-03-29T14:39:40;23.00;37.50
17415;DHT22;8825;48.086;16.426;2024-03-29T14:42:10;23.00;36.60
17415;DHT22;8825;48.086;16.426;2024-03-29T14:44:40;23.00;37.20
17415;DHT22;8825;48.086;16.426;2024-03-29T14:47:08;22.90;37.30
17415;DHT22;8825;48.086;16.426;2024-03-29T14:49:36;22.80;37.10
17415;DHT22;8825;48.086;16.426;2024-03-29T14:52:04;22.80;37.40
17415;DHT22;8825;48.086;16.426;2024-03-29T14:54:31;22.80;38.30
17415;DHT22;8825;48.086;16.426;2024-03-29T14:56:59;22.70;37.60
17415;DHT22;8825;48.086;16.426;2024-03-29T14:59:27;22.60;37.70
17415;DHT22;8825;48.086;16.426;2024-03-29T15:01:56;22.50;38.60
17415;DHT22;8825;48.086;16.426;2024-03-29T15:04:24;22.40;39.10
17415;DHT22;8825;48.086;16.426;2024-03-29T15:06:51;22.30;39.10
17415;DHT22;8825;48.086;16.426;2024-03-29T15:09:19;22.20;39.90
17415;DHT22;8825;48.086;16.426;2024-03-29T15:11:47;22.20;39.50
17415;DHT22;8825;48.086;16.426;2024-03-29T15:14:14;22.10;40.40
17415;DHT22;8825;48.086;16.426;2024-03-29T15:16:42;22.20;39.80
17415;DHT22;8825;48.086;16.426;2024-03-29T15:19:10;22.10;40.10
17415;DHT22;8825;48.086;16.426;2024-03-29T15:21:38;22.10;40.20
17415;DHT22;8825;48.086;16.426;2024-03-29T15:24:06;22.10;40.10
17415;DHT22;8825;48.086;16.426;2024-03-29T15:26:34;22.10;39.80
17415;DHT22;8825;48.086;16.426;2024-03-29T15:29:05;22.00;39.90
17415;DHT22;8825;48.086;16.426;2024-03-29T15:31:40;21.90;39.80
17415;DHT22;8825;48.086;16.426;2024-03-29T15:34:10;21.80;40.20
17415;DHT22;8825;48.086;16.426;2024-03-29T15:36:38;21.70;40.40
17415;DHT22;8825;48.086;16.426;2024-03-29T15:39:06;21.50;40.60
17415;DHT22;8825;48.086;16.426;2024-03-29T15:41:37;21.40;41.10
17415;DHT22;8825;48.086;16.426;2024-03-29T15:44:06;21.30;41.50